sensor_id;sensor_type;location;lat;lon;timestamp;temperature;humidity
15235;DHT22;7720;51.926;4.488;2023-07-29T00:12:51;19.20;99.90
15235;DHT22;7720;51.926;4.488;2023-07-29T00:33:44;19.20;99.90
15235;DHT22;7720;51.926;4.488;2023-07-29T01:10:02;19.10;99.90
15235;DHT22;7720;51.926;4.488;2023-07-29T01:15:12;19.00;99.90
15235;DHT22;7720;51.926;4.488;2023-07-29T01:30:40;18.90;99.90
15235;DHT22;7720;51.926;4.488;2023-07-29T01:35:48;19.00;99.90
15235;DHT22;7720;51.926;4.488;2023-07-29T03:04:59;18.60;99.90
15235;DHT22;7720;51.926;4.488;2023-07-29T03:10:03;18.60;99.90
15235;DHT22;7720;51.926;4.488;2023-07-29T03:15:09;18.50;99.90
15235;DHT22;7720;51.926;4.488;2023-07-29T03:20:13;18.40;99.90
15235;DHT22;7720;51.926;4.488;2023-07-29T03:25:16;18.30;99.90
15235;DHT22;7720;51.926;4.488;2023-07-29T03:30:22;18.20;99.90
15235;DHT22;7720;51.926;4.488;2023-07-29T03:35:27;18.40;99.90
15235;DHT22;7720;51.926;4.488;2023-07-29T03:40:30;18.30;99.90
15235;DHT22;7720;51.926;4.488;2023-07-29T03:45:35;18.20;99.90
15235;DHT22;7720;51.926;4.488;2023-07-29T03:50:39;18.30;99.90
15235;DHT22;7720;51.926;4.488;2023-07-29T03:55:42;18.30;99.90
15235;DHT22;7720;51.926;4.488;2023-07-29T04:00:48;18.20;99.90
15235;DHT22;7720;51.926;4.488;2023-07-29T04:05:51;18.40;99.90
15235;DHT22;7720;51.926;4.488;2023-07-29T04:10:56;18.40;99.90
15235;DHT22;7720;51.926;4.488;2023-07-29T04:16:00;18.20;99.90
15235;DHT22;7720;51.926;4.488;2023-07-29T04:21:04;18.20;99.90
15235;DHT22;7720;51.926;4.488;2023-07-29T04:26:08;18.30;99.90
15235;DHT22;7720;51.926;4.488;2023-07-29T04:31:13;18.20;99.90
15235;DHT22;7720;51.926;4.488;2023-07-29T04:36:16;18.20;99.90
15235;DHT22;7720;51.926;4.488;2023-07-29T04:41:20;18.20;99.90
15235;DHT22;7720;51.926;4.488;2023-07-29T04:46:27;18.30;99.90
15235;DHT22;7720;51.926;4.488;2023-07-29T04:51:30;18.30;99.90
15235;DHT22;7720;51.926;4.488;2023-07-29T04:56:35;18.30;99.90
15235;DHT22;7720;51.926;4.488;2023-07-29T05:01:40;18.30;99.90
15235;DHT22;7720;51.926;4.488;2023-07-29T05:06:45;18.30;99.90
15235;DHT22;7720;51.926;4.488;2023-07-29T05:11:48;18.40;99.90
15235;DHT22;7720;51.926;4.488;2023-07-29T05:16:53;18.40;99.90
15235;DHT22;7720;51.926;4.488;2023-07-29T05:21:57;18.50;99.90
15235;DHT22;7720;51.926;4.488;2023-07-29T05:27:01;18.50;99.90
15235;DHT22;7720;51.926;4.488;2023-07-29T05:32:06;18.60;99.90
15235;DHT22;7720;51.926;4.488;2023-07-29T05:37:10;18.70;99.90
15235;DHT22;7720;51.926;4.488;2023-07-29T05:42:13;18.80;99.90
15235;DHT22;7720;51.926;4.488;2023-07-29T05:47:18;18.80;99.90
15235;DHT22;7720;51.926;4.488;2023-07-29T05:52:22;18.80;99.90
15235;DHT22;7720;51.926;4.488;2023-07-29T05:57:25;18.90;99.90
15235;DHT22;7720;51.926;4.488;2023-07-29T06:02:30;18.80;99.90
15235;DHT22;7720;51.926;4.488;2023-07-29T06:07:33;18.90;99.90
15235;DHT22;7720;51.926;4.488;2023-07-29T06:12:37;19.00;99.90
15235;DHT22;7720;51.926;4.488;2023-07-29T06:17:42;19.00;99.90
15235;DHT22;7720;51.926;4.488;2023-07-29T06:22:45;19.30;99.90
15235;DHT22;7720;51.926;4.488;2023-07-29T06:27:49;19.40;99.90
15235;DHT22;7720;51.926;4.488;2023-07-29T06:32:53;19.30;99.90
15235;DHT22;7720;51.926;4.488;2023-07-29T06:37:57;19.70;99.90
15235;DHT22;7720;51.926;4.488;2023-07-29T06:43:01;19.90;99.90
15235;DHT22;7720;51.926;4.488;2023-07-29T06:48:06;20.20;99.90
15235;DHT22;7720;51.926;4.488;2023-07-29T06:53:09;20.00;99.90
15235;DHT22;7720;51.926;4.488;2023-07-29T06:58:13;19.80;99.90
15235;DHT22;7720;51.926;4.488;2023-07-29T07:03:17;19.80;99.90
15235;DHT22;7720;51.926;4.488;2023-07-29T07:08:21;19.60;99.90
15235;DHT22;7720;51.926;4.488;2023-07-29T07:13:26;19.60;99.90
15235;DHT22;7720;51.926;4.488;2023-07-29T07:18:31;19.70;99.90
15235;DHT22;7720;51.926;4.488;2023-07-29T07:23:34;19.90;99.90
15235;DHT22;7720;51.926;4.488;2023-07-29T07:28:38;20.00;99.90
15235;DHT22;7720;51.926;4.488;2023-07-29T07:33:42;20.00;99.90
15235;DHT22;7720;51.926;4.488;2023-07-29T07:38:46;20.10;99.90
15235;DHT22;7720;51.926;4.488;2023-07-29T07:43:50;19.90;99.90
15235;DHT22;7720;51.926;4.488;2023-07-29T07:48:55;20.20;99.90
15235;DHT22;7720;51.926;4.488;2023-07-29T07:53:58;20.40;99.90
15235;DHT22;7720;51.926;4.488;2023-07-29T07:59:01;20.40;99.90
15235;DHT22;7720;51.926;4.488;2023-07-29T08:04:07;20.40;99.90
15235;DHT22;7720;51.926;4.488;2023-07-29T08:09:10;20.70;99.90
15235;DHT22;7720;51.926;4.488;2023-07-29T08:14:14;20.50;99.90
15235;DHT22;7720;51.926;4.488;2023-07-29T08:19:18;20.20;99.90
15235;DHT22;7720;51.926;4.488;2023-07-29T08:24:23;20.30;99.90
15235;DHT22;7720;51.926;4.488;2023-07-29T08:29:27;20.30;99.90
15235;DHT22;7720;51.926;4.488;2023-07-29T08:34:32;20.30;99.90
15235;DHT22;7720;51.926;4.488;2023-07-29T08:39:35;20.30;99.90
15235;DHT22;7720;51.926;4.488;2023-07-29T08:44:41;20.70;99.90
15235;DHT22;7720;51.926;4.488;2023-07-29T08:49:46;20.60;99.90
15235;DHT22;7720;51.926;4.488;2023-07-29T08:54:51;20.70;99.90
15235;DHT22;7720;51.926;4.488;2023-07-29T08:59:55;21.20;99.90
15235;DHT22;7720;51.926;4.488;2023-07-29T09:05:01;21.10;99.90
15235;DHT22;7720;51.926;4.488;2023-07-29T09:10:07;21.00;99.90
15235;DHT22;7720;51.926;4.488;2023-07-29T09:15:12;20.90;99.90
15235;DHT22;7720;51.926;4.488;2023-07-29T09:20:24;20.70;99.90
15235;DHT22;7720;51.926;4.488;2023-07-29T09:25:29;20.90;99.90
15235;DHT22;7720;51.926;4.488;2023-07-29T09:30:33;20.80;99.90
15235;DHT22;7720;51.926;4.488;2023-07-29T09:35:38;20.50;99.90
15235;DHT22;7720;51.926;4.488;2023-07-29T09:40:42;20.50;99.90
15235;DHT22;7720;51.926;4.488;2023-07-29T09:45:47;20.60;99.90
15235;DHT22;7720;51.926;4.488;2023-07-29T09:50:52;21.00;99.90
15235;DHT22;7720;51.926;4.488;2023-07-29T09:55:55;21.10;99.90
15235;DHT22;7720;51.926;4.488;2023-07-29T10:00:59;21.10;99.90
15235;DHT22;7720;51.926;4.488;2023-07-29T10:06:05;21.00;99.90
15235;DHT22;7720;51.926;4.488;2023-07-29T10:11:10;20.90;99.90
15235;DHT22;7720;51.926;4.488;2023-07-29T10:16:14;20.80;99.90
15235;DHT22;7720;51.926;4.488;2023-07-29T10:21:21;20.60;99.90
15235;DHT22;7720;51.926;4.488;2023-07-29T10:26:26;20.60;99.90
15235;DHT22;7720;51.926;4.488;2023-07-29T10:31:32;20.60;99.90
15235;DHT22;7720;51.926;4.488;2023-07-29T10:36:38;20.40;99.90
15235;DHT22;7720;51.926;4.488;2023-07-29T10:41:57;20.10;99.90
15235;DHT22;7720;51.926;4.488;2023-07-29T10:47:12;20.10;99.90
15235;DHT22;7720;51.926;4.488;2023-07-29T10:52:28;20.20;99.90
15235;DHT22;7720;51.926;4.488;2023-07-29T10:57:33;20.30;99.90
15235;DHT22;7720;51.926;4.488;2023-07-29T11:02:38;20.40;99.90
15235;DHT22;7720;51.926;4.488;2023-07-29T11:07:47;20.90;99.90
15235;DHT22;7720;51.926;4.488;2023-07-29T11:12:52;20.90;99.90
15235;DHT22;7720;51.926;4.488;2023-07-29T11:17:57;20.90;99.90
15235;DHT22;7720;51.926;4.488;2023-07-29T11:23:03;21.30;99.90
15235;DHT22;7720;51.926;4.488;2023-07-29T11:28:08;21.30;99.90
15235;DHT22;7720;51.926;4.488;2023-07-29T11:33:12;21.40;99.90
15235;DHT22;7720;51.926;4.488;2023-07-29T11:38:18;21.30;99.90
15235;DHT22;7720;51.926;4.488;2023-07-29T11:43:22;21.40;99.90
15235;DHT22;7720;51.926;4.488;2023-07-29T11:48:31;21.50;99.90
15235;DHT22;7720;51.926;4.488;2023-07-29T11:53:36;21.30;99.90
15235;DHT22;7720;51.926;4.488;2023-07-29T11:58:40;21.20;99.90
15235;DHT22;7720;51.926;4.488;2023-07-29T12:03:46;21.40;99.90
15235;DHT22;7720;51.926;4.488;2023-07-29T12:08:51;21.40;99.90
15235;DHT22;7720;51.926;4.488;2023-07-29T12:13:55;21.40;99.90
15235;DHT22;7720;51.926;4.488;2023-07-29T12:19:00;21.60;99.90
15235;DHT22;7720;51.926;4.488;2023-07-29T12:24:06;21.80;99.90
15235;DHT22;7720;51.926;4.488;2023-07-29T12:29:13;21.80;99.90
